Time;durP1;ratioP1;P1;durP2;ratioP2;P2;SDS_P1;SDS_P2;PMS_P1;PMS_P2;Temp;Humidity;BMP_temperature;BMP_pressure;BME280_temperature;BME280_humidity;BME280_pressure;Samples;Min_cycle;Max_cycle;Signal;HPM_P1;HPM_P2
2022/01/15 00:00:21;;;;;;;53.87;32.55;;;;;;;1.15;49.36;94463.09;1688023;83;20962;-59
2022/01/15 00:02:50;;;;;;;49.75;28.32;;;;;;;1.12;49.48;94467.36;1709254;82;21077;-58
2022/01/15 00:05:17;;;;;;;39.27;21.30;;;;;;;1.08;49.81;94472.59;1691804;82;21147;-61
2022/01/15 00:07:47;;;;;;;22.40;14.05;;;;;;;1.06;49.79;94466.23;1730345;81;21030;-65
2022/01/15 00:10:13;;;;;;;53.23;26.57;;;;;;;1.04;49.89;94479.97;1738151;80;21015;-58
2022/01/15 00:12:40;;;;;;;75.57;38.58;;;;;;;0.96;49.93;94482.52;1763237;81;21128;-58
2022/01/15 00:15:15;;;;;;;34.18;19.62;;;;;;;0.90;49.64;94486.21;1726858;81;21492;-59
2022/01/15 00:18:00;;;;;;;20.00;12.93;;;;;;;0.87;49.69;94486.22;1726802;81;21308;-58
2022/01/15 00:20:29;;;;;;;26.97;16.40;;;;;;;0.82;49.87;94496.09;1724801;81;21024;-57
2022/01/15 00:22:58;;;;;;;26.05;15.15;;;;;;;0.83;49.88;94493.02;1734123;81;21085;-57
2022/01/15 00:25:27;;;;;;;118.70;54.40;;;;;;;0.81;50.03;94507.49;1700580;82;21187;-59
2022/01/15 00:27:54;;;;;;;33.53;19.95;;;;;;;0.80;50.15;94511.36;1723519;82;20992;-58
2022/01/15 00:30:21;;;;;;;32.63;20.23;;;;;;;0.80;50.39;94509.25;1719222;81;21177;-57
2022/01/15 00:32:48;;;;;;;17.60;11.30;;;;;;;0.75;50.55;94513.72;1707907;83;20953;-60
2022/01/15 00:35:16;;;;;;;16.32;10.18;;;;;;;0.70;50.84;94516.23;1640401;84;21041;-59
2022/01/15 00:37:43;;;;;;;14.35;9.10;;;;;;;0.68;51.04;94522.63;1693115;84;21043;-59
2022/01/15 00:40:17;;;;;;;17.35;12.88;;;;;;;0.71;51.06;94525.91;1698953;82;21083;-58
2022/01/15 00:42:44;;;;;;;13.83;9.83;;;;;;;0.71;51.09;94534.02;1724231;80;21125;-58
2022/01/15 00:45:17;;;;;;;16.95;9.88;;;;;;;0.67;51.18;94537.33;1761843;80;21514;-58
2022/01/15 00:47:41;;;;;;;11.93;7.87;;;;;;;0.59;51.29;94536.37;1766636;80;21101;-59
2022/01/15 00:50:08;;;;;;;18.05;10.48;;;;;;;0.58;51.54;94534.23;1743455;80;21049;-61
2022/01/15 00:52:38;;;;;;;12.70;8.55;;;;;;;0.61;51.58;94532.09;1768443;80;21497;-58
2022/01/15 00:55:09;;;;;;;12.20;8.18;;;;;;;0.60;51.12;94537.91;1746665;80;21422;-57
2022/01/15 00:57:37;;;;;;;11.40;8.18;;;;;;;0.52;51.04;94541.20;1730849;81;21395;-58
2022/01/15 01:00:06;;;;;;;9.98;8.53;;;;;;;0.38;51.53;94549.32;1666101;84;21050;-59
2022/01/15 01:02:32;;;;;;;9.85;8.43;;;;;;;0.34;51.98;94539.09;1720937;81;21088;-58
2022/01/15 01:05:01;;;;;;;13.62;8.83;;;;;;;0.31;52.12;94552.04;1716118;81;21038;-59
2022/01/15 01:07:29;;;;;;;13.43;8.70;;;;;;;0.26;52.34;94555.70;1711457;82;21174;-59
2022/01/15 01:21:10;;;;;;;82.53;48.23;;;;;;;0.17;52.92;94557.44;1715908;80;21208;-58
2022/01/15 01:23:20;;;;;;;36.13;24.40;;;;;;;0.23;52.78;94562.64;1747092;81;21105;-59
2022/01/15 01:25:51;;;;;;;22.35;12.90;;;;;;;0.26;52.71;94548.34;1760965;81;20983;-59
2022/01/15 01:28:25;;;;;;;20.50;13.43;;;;;;;0.23;52.59;94557.23;1761815;80;20966;-58
2022/01/15 01:30:54;;;;;;;25.97;16.55;;;;;;;0.24;52.39;94549.31;1755640;81;21491;-59
2022/01/15 01:36:04;;;;;;;28.27;15.90;;;;;;;0.16;52.38;94560.52;1759916;80;21045;-59
2022/01/15 01:38:28;;;;;;;29.67;15.55;;;;;;;0.06;52.43;94548.53;1761109;81;21078;-58
2022/01/15 01:40:50;;;;;;;33.15;17.02;;;;;;;-0.01;52.88;94552.59;1732819;81;21583;-60
2022/01/15 01:45:52;;;;;;;16.82;10.58;;;;;;;-0.11;53.48;94546.39;1725594;81;21548;-58
2022/01/15 01:48:15;;;;;;;15.30;10.13;;;;;;;-0.08;53.48;94563.97;1710273;81;21137;-59
2022/01/15 01:50:43;;;;;;;22.65;12.60;;;;;;;-0.06;53.42;94566.30;1698852;82;20998;-58
2022/01/15 01:53:09;;;;;;;20.62;14.38;;;;;;;-0.09;53.42;94555.67;1735343;82;21010;-58
2022/01/15 01:55:37;;;;;;;24.37;15.18;;;;;;;-0.07;53.35;94562.05;1700757;83;21050;-60
2022/01/15 01:58:04;;;;;;;15.43;11.53;;;;;;;-0.08;53.32;94561.27;1717855;83;21124;-59
2022/01/15 02:00:31;;;;;;;16.75;12.98;;;;;;;-0.10;53.17;94562.80;1698755;82;20991;-60
2022/01/15 02:02:58;;;;;;;30.82;22.48;;;;;;;-0.10;53.35;94550.64;1729137;82;21129;-60
2022/01/15 02:05:25;;;;;;;43.33;29.72;;;;;;;-0.11;53.34;94547.73;1733535;81;21034;-57
2022/01/15 02:07:53;;;;;;;26.87;19.45;;;;;;;-0.11;53.38;94555.84;1699190;82;21141;-57
2022/01/15 02:10:21;;;;;;;30.82;21.77;;;;;;;-0.08;53.44;94547.75;1670815;84;21201;-57
2022/01/15 02:12:50;;;;;;;23.62;15.20;;;;;;;-0.03;53.49;94554.72;1621996;86;21083;-62
2022/01/15 02:15:21;;;;;;;18.75;14.15;;;;;;;-0.04;53.15;94553.17;1640589;84;21062;-57
2022/01/15 02:17:48;;;;;;;30.30;19.10;;;;;;;-0.07;53.15;94553.95;1660725;85;21001;-58
2022/01/15 02:20:37;;;;;;;15.53;10.80;;;;;;;-0.08;53.20;94550.45;1667332;85;21426;-58
2022/01/15 02:25:48;;;;;;;11.25;7.90;;;;;;;-0.10;52.98;94556.05;1729973;82;21025;-58
2022/01/15 02:28:22;;;;;;;13.30;8.25;;;;;;;-0.14;53.22;94566.08;1740868;81;21066;-58
2022/01/15 02:31:03;;;;;;;11.08;7.62;;;;;;;-0.18;53.26;94565.31;1734069;81;22387;-59
2022/01/15 02:33:30;;;;;;;10.57;7.17;;;;;;;-0.21;53.33;94568.78;1696941;84;21106;-58
2022/01/15 02:35:57;;;;;;;16.62;9.60;;;;;;;-0.18;53.24;94581.53;1693679;83;21137;-58
2022/01/15 02:38:25;;;;;;;16.87;8.35;;;;;;;-0.16;53.26;94577.86;1703377;83;21053;-57
2022/01/15 02:40:52;;;;;;;10.78;6.92;;;;;;;-0.18;53.47;94583.66;1673549;84;21080;-59
2022/01/15 02:43:28;;;;;;;8.83;7.17;;;;;;;-0.21;53.45;94574.95;1690681;83;20978;-60
2022/01/15 02:45:57;;;;;;;12.87;7.90;;;;;;;-0.21;53.40;94579.59;1686978;83;21148;-59
2022/01/15 02:48:28;;;;;;;12.65;7.55;;;;;;;-0.16;53.44;94580.56;1713217;83;21155;-58
2022/01/15 02:50:56;;;;;;;9.78;7.15;;;;;;;-0.08;53.23;94587.55;1700086;83;21117;-57
2022/01/15 02:53:23;;;;;;;13.28;9.05;;;;;;;-0.10;53.20;94590.63;1704703;83;21030;-59
2022/01/15 02:55:52;;;;;;;12.33;11.03;;;;;;;-0.14;53.11;94601.22;1706387;80;21532;-57
2022/01/15 02:58:21;;;;;;;15.48;10.03;;;;;;;-0.18;53.23;94601.80;1758451;80;21576;-58
2022/01/15 03:00:49;;;;;;;10.48;9.35;;;;;;;-0.23;53.39;94596.77;1709738;81;21069;-59
2022/01/15 03:03:19;;;;;;;10.13;8.45;;;;;;;-0.27;53.49;94596.75;1686616;83;21120;-60
2022/01/15 03:05:48;;;;;;;14.33;10.28;;;;;;;-0.25;53.48;94605.84;1717393;82;21052;-60
2022/01/15 03:08:16;;;;;;;12.95;9.13;;;;;;;-0.25;53.50;94603.14;1722264;81;21053;-60
2022/01/15 03:10:46;;;;;;;23.30;19.00;;;;;;;-0.25;53.37;94607.95;1736721;81;21471;-59
2022/01/15 03:13:14;;;;;;;11.57;8.80;;;;;;;-0.28;53.42;94607.94;1728158;82;21146;-59
2022/01/15 03:15:41;;;;;;;16.37;10.13;;;;;;;-0.28;53.43;94607.94;1702404;81;21105;-61
2022/01/15 03:18:09;;;;;;;16.77;12.05;;;;;;;-0.34;53.58;94611.61;1728327;81;21045;-57
2022/01/15 03:20:37;;;;;;;11.68;9.88;;;;;;;-0.44;53.77;94612.92;1713059;81;20982;-59
2022/01/15 03:23:04;;;;;;;10.20;7.62;;;;;;;-0.42;53.93;94601.16;1758968;80;21041;-57
2022/01/15 03:25:31;;;;;;;10.60;8.78;;;;;;;-0.38;53.88;94610.04;1739051;81;21521;-59
2022/01/15 03:28:00;;;;;;;12.98;8.48;;;;;;;-0.38;53.76;94604.05;1763934;81;20940;-59
2022/01/15 03:30:27;;;;;;;13.15;11.65;;;;;;;-0.44;53.80;94600.17;1731928;80;21141;-59
2022/01/15 03:32:53;;;;;;;22.55;15.53;;;;;;;-0.55;54.14;94593.19;1734110;81;21070;-58
2022/01/15 03:35:21;;;;;;;27.82;15.20;;;;;;;-0.59;54.32;94599.91;1697239;82;21144;-58
2022/01/15 03:37:48;;;;;;;22.58;13.95;;;;;;;-0.56;54.33;94597.05;1703198;82;21187;-61
2022/01/15 03:40:19;;;;;;;18.40;11.43;;;;;;;-0.56;54.28;94591.64;1700592;83;21521;-58
2022/01/15 03:42:45;;;;;;;15.48;11.53;;;;;;;-0.58;54.09;94593.36;1704275;83;21117;-58
2022/01/15 03:45:15;;;;;;;13.20;10.00;;;;;;;-0.61;54.16;94586.61;1697211;82;21079;-57
2022/01/15 03:47:44;;;;;;;13.72;10.80;;;;;;;-0.67;54.07;94592.95;1733596;81;21614;-59
2022/01/15 03:50:13;;;;;;;15.83;10.80;;;;;;;-0.71;54.27;94595.43;1715113;81;21120;-58
2022/01/15 03:52:45;;;;;;;17.37;14.15;;;;;;;-0.77;54.23;94595.02;1747167;81;21010;-57
2022/01/15 03:55:13;;;;;;;13.80;8.88;;;;;;;-0.77;54.21;94583.45;1727992;82;21034;-59
2022/01/15 03:57:40;;;;;;;10.55;9.40;;;;;;;-0.81;54.31;94602.33;1705135;82;21588;-58
2022/01/15 04:00:17;;;;;;;12.55;9.33;;;;;;;-0.85;54.25;94600.76;1688049;83;21049;-60
2022/01/15 04:02:46;;;;;;;10.85;8.28;;;;;;;-0.83;54.32;94597.89;1710987;82;21196;-57
2022/01/15 04:05:13;;;;;;;9.90;7.85;;;;;;;-0.75;53.99;94608.91;1708789;82;21100;-62
2022/01/15 04:07:39;;;;;;;12.45;8.48;;;;;;;-0.69;53.78;94595.82;1731132;82;20982;-59
2022/01/15 04:10:08;;;;;;;14.73;10.78;;;;;;;-0.66;53.41;94598.55;1695646;82;21078;-57
2022/01/15 04:12:38;;;;;;;12.25;8.33;;;;;;;-0.67;53.32;94605.10;1686459;83;21520;-59
2022/01/15 04:15:06;;;;;;;24.23;16.10;;;;;;;-0.73;53.24;94602.58;1683849;83;21747;-58
2022/01/15 04:17:48;;;;;;;18.55;13.90;;;;;;;-0.76;53.31;94616.81;1697843;83;21551;-58
2022/01/15 04:20:17;;;;;;;19.67;12.70;;;;;;;-0.86;53.51;94610.80;1708497;81;21547;-63
2022/01/15 04:22:45;;;;;;;10.58;8.00;;;;;;;-0.91;53.24;94607.67;1743731;80;21061;-60
2022/01/15 04:25:12;;;;;;;13.50;11.38;;;;;;;-0.94;53.36;94617.88;1760738;80;21443;-59
2022/01/15 04:27:39;;;;;;;14.23;9.58;;;;;;;-0.96;53.45;94630.98;1758241;80;22359;-59
2022/01/15 04:30:08;;;;;;;21.37;13.20;;;;;;;-0.98;53.40;94627.89;1755689;80;21046;-61
2022/01/15 04:32:34;;;;;;;16.32;10.45;;;;;;;-1.01;53.58;94628.06;1730278;81;21550;-60
2022/01/15 04:35:01;;;;;;;22.52;14.80;;;;;;;-0.97;53.44;94622.69;1743065;80;21096;-59
2022/01/15 04:37:45;;;;;;;23.75;14.53;;;;;;;-0.99;53.49;94625.00;1694902;82;21026;-57
2022/01/15 04:40:08;;;;;;;23.40;12.58;;;;;;;-1.01;53.71;94639.42;1734244;81;21374;-58
2022/01/15 04:42:35;;;;;;;23.65;14.70;;;;;;;-0.97;53.32;94641.59;1748070;82;21030;-56
2022/01/15 04:45:03;;;;;;;12.58;11.00;;;;;;;-0.91;53.16;94652.22;1752862;81;20951;-58
2022/01/15 04:47:31;;;;;;;26.20;19.32;;;;;;;-0.91;53.01;94634.11;1761948;81;21144;-57
2022/01/15 04:49:58;;;;;;;16.77;11.53;;;;;;;-0.97;53.19;94661.24;1761206;80;21003;-58
2022/01/15 04:52:28;;;;;;;9.45;8.20;;;;;;;-1.01;53.18;94642.12;1751484;81;21056;-57
2022/01/15 04:54:55;;;;;;;11.68;8.40;;;;;;;-1.06;53.30;94647.88;1746668;80;21029;-58
2022/01/15 04:57:21;;;;;;;13.60;12.15;;;;;;;-1.08;53.33;94650.97;1743994;80;20952;-58
2022/01/15 04:59:48;;;;;;;25.40;17.32;;;;;;;-1.11;53.33;94657.69;1716727;81;21075;-60
2022/01/15 05:02:20;;;;;;;27.75;17.30;;;;;;;-1.13;53.64;94654.59;1726613;82;21676;-59
2022/01/15 05:04:51;;;;;;;19.55;14.83;;;;;;;-1.07;53.66;94657.91;1735480;82;21057;-61
2022/01/15 05:07:21;;;;;;;15.32;12.33;;;;;;;-1.03;53.63;94649.27;1737319;82;20983;-57
2022/01/15 05:09:49;;;;;;;18.55;11.48;;;;;;;-1.00;53.46;94655.84;1714161;81;21034;-60
2022/01/15 05:12:29;;;;;;;15.40;10.88;;;;;;;-1.05;53.34;94654.83;1719984;81;21080;-63
2022/01/15 05:14:51;;;;;;;22.67;15.05;;;;;;;-1.20;53.54;94658.56;1741781;81;20942;-59
2022/01/15 05:17:18;;;;;;;21.25;15.58;;;;;;;-1.30;53.89;94651.19;1727385;81;21144;-60
2022/01/15 05:19:45;;;;;;;14.00;10.55;;;;;;;-1.30;53.98;94656.58;1755506;80;21065;-59
2022/01/15 05:22:11;;;;;;;17.15;12.00;;;;;;;-1.26;53.86;94656.81;1745334;81;21054;-59
2022/01/15 05:24:41;;;;;;;14.78;10.58;;;;;;;-1.30;53.89;94663.33;1721303;82;21456;-58
2022/01/15 05:27:08;;;;;;;13.72;10.55;;;;;;;-1.37;54.04;94658.65;1703283;82;21086;-60
2022/01/15 05:29:34;;;;;;;18.17;11.73;;;;;;;-1.41;54.09;94655.16;1710043;82;21127;-61
2022/01/15 05:32:05;;;;;;;17.12;11.35;;;;;;;-1.42;54.32;94660.91;1714367;81;21058;-58
2022/01/15 05:34:33;;;;;;;19.25;12.70;;;;;;;-1.45;54.36;94667.84;1708192;81;21133;-59
2022/01/15 05:37:01;;;;;;;14.45;9.98;;;;;;;-1.43;54.55;94666.89;1696307;82;37966;-61
2022/01/15 05:39:29;;;;;;;15.30;9.65;;;;;;;-1.37;54.52;94671.34;1669109;83;21581;-59
2022/01/15 05:41:56;;;;;;;18.50;13.22;;;;;;;-1.34;54.32;94671.97;1693642;82;21154;-58
2022/01/15 05:44:23;;;;;;;14.13;11.30;;;;;;;-1.40;54.32;94675.58;1683675;83;21045;-60
2022/01/15 05:46:51;;;;;;;14.87;10.13;;;;;;;-1.47;54.46;94672.05;1688873;83;21017;-62
2022/01/15 05:49:17;;;;;;;14.25;10.63;;;;;;;-1.51;54.59;94676.64;1667811;83;21547;-60
2022/01/15 05:51:44;;;;;;;11.57;9.30;;;;;;;-1.51;54.68;94675.30;1674969;83;21010;-59
2022/01/15 05:54:11;;;;;;;11.55;9.90;;;;;;;-1.56;54.82;94673.71;1681874;83;21800;-61
2022/01/15 05:56:39;;;;;;;14.75;10.90;;;;;;;-1.61;54.97;94670.02;1699013;82;20959;-58
2022/01/15 05:59:09;;;;;;;15.23;10.60;;;;;;;-1.59;55.04;94676.36;1701631;82;21271;-59
2022/01/15 06:01:36;;;;;;;10.85;8.70;;;;;;;-1.57;55.07;94683.51;1709250;82;20968;-59
2022/01/15 06:04:05;;;;;;;9.53;8.45;;;;;;;-1.62;55.10;94698.13;1729543;82;21591;-59
2022/01/15 06:06:34;;;;;;;20.15;14.75;;;;;;;-1.67;55.26;94690.94;1720476;82;21624;-60
2022/01/15 06:09:02;;;;;;;25.08;20.10;;;;;;;-1.68;55.35;94710.96;1727500;82;20975;-60
2022/01/15 06:11:34;;;;;;;30.88;24.20;;;;;;;-1.65;55.33;94707.52;1755225;81;20962;-59
2022/01/15 06:14:05;;;;;;;20.45;14.65;;;;;;;-1.64;55.40;94711.20;1746704;80;21002;-60
2022/01/15 06:16:32;;;;;;;14.83;12.23;;;;;;;-1.66;55.18;94714.06;1728018;81;21013;-58
2022/01/15 06:19:00;;;;;;;14.87;12.35;;;;;;;-1.76;55.37;94710.11;1747678;81;21136;-60
2022/01/15 06:21:27;;;;;;;14.05;10.68;;;;;;;-1.88;55.69;94712.30;1763870;81;21066;-61
2022/01/15 06:23:53;;;;;;;15.28;11.70;;;;;;;-1.98;55.94;94700.81;1670820;81;21134;-59
2022/01/15 06:26:20;;;;;;;20.00;12.80;;;;;;;-2.01;56.21;94712.34;1709734;81;21081;-60
2022/01/15 06:28:47;;;;;;;23.62;14.90;;;;;;;-2.02;56.34;94704.05;1707615;81;21011;-63
2022/01/15 06:31:15;;;;;;;22.02;15.32;;;;;;;-2.05;56.47;94717.48;1702579;82;21885;-59
2022/01/15 06:33:42;;;;;;;20.60;14.15;;;;;;;-2.00;56.59;94721.98;1721885;81;21229;-59
2022/01/15 06:36:09;;;;;;;27.27;16.75;;;;;;;-2.01;56.52;94729.86;1715729;81;21047;-60
2022/01/15 06:38:35;;;;;;;28.70;16.75;;;;;;;-2.08;56.69;94725.75;1699599;82;21133;-62
2022/01/15 06:41:05;;;;;;;27.52;17.67;;;;;;;-2.12;56.78;94718.17;1725851;81;21155;-59
2022/01/15 06:43:32;;;;;;;31.70;17.48;;;;;;;-2.15;56.94;94725.64;1727174;81;21544;-59
2022/01/15 06:45:58;;;;;;;35.13;22.35;;;;;;;-2.17;57.11;94738.71;1732940;81;21597;-63
2022/01/15 06:48:30;;;;;;;50.15;28.92;;;;;;;-2.19;57.19;94728.88;1710777;82;21640;-62
2022/01/15 06:50:57;;;;;;;27.13;14.75;;;;;;;-2.21;57.35;94748.67;1704063;81;21125;-61
2022/01/15 06:53:24;;;;;;;24.82;16.62;;;;;;;-2.22;57.45;94740.39;1721958;81;21209;-60
2022/01/15 06:55:55;;;;;;;24.37;15.43;;;;;;;-2.19;57.42;94743.69;1706456;81;21065;-60
2022/01/15 06:58:23;;;;;;;34.00;21.35;;;;;;;-2.16;57.38;94740.26;1724586;81;20972;-58
2022/01/15 07:00:50;;;;;;;38.00;23.80;;;;;;;-2.11;57.46;94747.25;1738881;81;20990;-59
2022/01/15 07:03:19;;;;;;;35.52;21.23;;;;;;;-2.09;57.56;94753.05;1750363;81;21481;-59
2022/01/15 07:05:45;;;;;;;44.23;26.27;;;;;;;-2.03;57.69;94748.31;1751219;81;20998;-62
2022/01/15 07:08:14;;;;;;;33.55;18.82;;;;;;;-1.93;57.54;94754.38;1725745;82;21076;-61
2022/01/15 07:10:41;;;;;;;38.20;23.60;;;;;;;-1.82;57.30;94756.64;1741124;81;20944;-60
2022/01/15 07:13:08;;;;;;;29.98;18.10;;;;;;;-1.74;57.06;94750.95;1715281;82;21108;-61
2022/01/15 07:15:36;;;;;;;26.62;17.20;;;;;;;-1.62;56.81;94764.75;1718271;83;21079;-62
2022/01/15 07:18:05;;;;;;;26.52;15.93;;;;;;;-1.53;56.51;94753.87;1692140;83;20990;-61
2022/01/15 07:20:31;;;;;;;26.25;16.55;;;;;;;-1.39;56.15;94757.27;1706790;82;21147;-65
2022/01/15 07:22:59;;;;;;;34.58;19.67;;;;;;;-1.28;55.93;94756.80;1710931;81;21049;-60
2022/01/15 07:25:26;;;;;;;39.83;20.77;;;;;;;-1.19;55.75;94756.70;1690726;81;21027;-61
2022/01/15 07:27:52;;;;;;;38.67;22.65;;;;;;;-1.08;55.53;94750.04;1728589;81;21070;-60
2022/01/15 07:30:20;;;;;;;54.75;27.32;;;;;;;-0.99;55.37;94758.62;1720479;81;21109;-60
2022/01/15 07:32:48;;;;;;;35.85;20.95;;;;;;;-0.92;55.20;94750.56;1736777;81;21175;-62
2022/01/15 07:35:15;;;;;;;36.60;21.65;;;;;;;-0.82;54.97;94752.55;1712419;81;21073;-60
2022/01/15 07:37:42;;;;;;;46.58;25.48;;;;;;;-0.72;54.72;94758.62;1720557;82;20985;-60
2022/01/15 07:40:10;;;;;;;40.12;21.52;;;;;;;-0.63;54.60;94750.98;1715008;82;22226;-61
2022/01/15 07:42:38;;;;;;;35.58;22.90;;;;;;;-0.54;54.54;94747.36;1722696;80;21154;-60
2022/01/15 07:45:10;;;;;;;29.90;18.00;;;;;;;-0.43;54.10;94760.37;1714449;81;21121;-59
2022/01/15 07:47:37;;;;;;;25.53;16.00;;;;;;;-0.30;54.09;94753.47;1739884;80;21043;-61
2022/01/15 07:50:06;;;;;;;23.30;15.38;;;;;;;-0.18;53.63;94754.52;1747975;81;21569;-61
2022/01/15 07:52:33;;;;;;;30.40;18.95;;;;;;;-0.04;53.56;94744.53;1754302;81;21002;-60
2022/01/15 07:55:01;;;;;;;34.78;18.95;;;;;;;0.14;53.27;94742.11;1736471;80;20978;-60
2022/01/15 07:57:28;;;;;;;33.73;18.98;;;;;;;0.35;52.95;94744.09;1750982;80;21162;-62
2022/01/15 07:59:57;;;;;;;27.17;16.87;;;;;;;0.54;52.13;94752.66;1710624;81;21021;-61
2022/01/15 08:02:28;;;;;;;28.05;21.57;;;;;;;0.68;51.72;94736.45;1732782;82;21550;-60
2022/01/15 08:04:57;;;;;;;26.05;16.70;;;;;;;0.81;51.23;94737.61;1699838;82;21021;-60
2022/01/15 08:07:24;;;;;;;23.77;14.30;;;;;;;0.90;50.99;94743.44;1675224;84;21042;-61
2022/01/15 08:09:52;;;;;;;21.62;15.10;;;;;;;1.00;50.74;94731.06;1658148;85;21609;-60
2022/01/15 08:12:19;;;;;;;20.32;12.85;;;;;;;1.13;50.63;94737.66;1718050;82;20934;-61
2022/01/15 08:14:46;;;;;;;23.77;13.38;;;;;;;1.21;50.43;94738.62;1709643;82;21087;-62
2022/01/15 08:17:16;;;;;;;21.15;13.03;;;;;;;1.29;49.42;94741.50;1681487;83;21049;-60
2022/01/15 08:19:47;;;;;;;24.05;15.35;;;;;;;1.44;49.28;94739.55;1698522;83;21035;-62
2022/01/15 08:22:13;;;;;;;24.40;19.52;;;;;;;1.59;48.80;94750.00;1677575;83;21116;-60
2022/01/15 08:24:43;;;;;;;25.82;18.27;;;;;;;1.72;48.57;94744.94;1650444;83;20969;-69
2022/01/15 08:27:10;;;;;;;20.32;15.70;;;;;;;1.84;47.56;94750.72;1657912;83;21407;-62
2022/01/15 08:29:39;;;;;;;17.70;12.55;;;;;;;2.02;47.81;94752.80;1686590;83;21036;-59
2022/01/15 08:32:08;;;;;;;21.80;14.28;;;;;;;2.14;47.00;94756.45;1645846;85;21009;-60
2022/01/15 08:34:37;;;;;;;14.73;11.55;;;;;;;2.21;47.09;94761.27;1633055;86;21197;-59
2022/01/15 08:37:04;;;;;;;15.70;10.65;;;;;;;2.21;47.52;94756.41;1668667;84;21054;-61
2022/01/15 08:39:31;;;;;;;17.90;11.48;;;;;;;2.24;46.88;94759.69;1699585;82;21182;-61
2022/01/15 08:41:58;;;;;;;22.02;13.65;;;;;;;2.29;47.11;94761.42;1697797;83;21026;-61
2022/01/15 08:44:25;;;;;;;15.38;11.75;;;;;;;2.38;46.99;94766.42;1684309;82;21061;-61
2022/01/15 08:46:53;;;;;;;14.93;11.70;;;;;;;2.46;47.30;94766.57;1677108;84;21570;-61
2022/01/15 08:49:20;;;;;;;16.55;11.55;;;;;;;2.52;46.70;94772.55;1700530;83;21089;-62
2022/01/15 08:51:47;;;;;;;16.60;11.15;;;;;;;2.60;46.44;94782.80;1686413;84;22210;-60
2022/01/15 08:54:13;;;;;;;20.68;12.53;;;;;;;2.66;46.30;94782.59;1653866;83;21128;-63
2022/01/15 08:56:40;;;;;;;20.52;13.05;;;;;;;2.71;46.53;94780.81;1663735;84;21042;-62
2022/01/15 08:59:07;;;;;;;19.77;11.75;;;;;;;2.81;46.61;94785.41;1680787;84;22027;-60
2022/01/15 09:01:33;;;;;;;23.52;12.50;;;;;;;3.01;45.74;94791.88;1655570;85;21087;-61
2022/01/15 09:04:00;;;;;;;17.82;11.83;;;;;;;3.28;45.63;94790.16;1673997;85;21974;-62
2022/01/15 09:06:27;;;;;;;24.45;12.95;;;;;;;3.59;44.69;94792.05;1665300;85;20992;-62
2022/01/15 09:08:54;;;;;;;20.72;11.80;;;;;;;3.76;44.50;94791.70;1663297;85;21067;-61
2022/01/15 09:11:21;;;;;;;20.43;13.68;;;;;;;3.87;44.99;94780.91;1644566;85;22394;-59
2022/01/15 09:13:49;;;;;;;22.77;14.68;;;;;;;4.10;43.80;94779.73;1722474;80;20985;-61
2022/01/15 09:16:18;;;;;;;24.40;14.18;;;;;;;4.54;43.55;94778.23;1728567;82;21035;-60
2022/01/15 09:18:45;;;;;;;16.12;10.53;;;;;;;4.81;43.03;94781.77;1714496;82;21060;-61
2022/01/15 09:21:11;;;;;;;18.23;10.70;;;;;;;4.94;41.59;94774.60;1727734;82;21016;-62
2022/01/15 09:23:38;;;;;;;16.60;10.53;;;;;;;4.97;41.36;94777.86;1717427;81;21694;-62
2022/01/15 09:26:06;;;;;;;15.05;11.25;;;;;;;5.02;41.72;94776.06;1696605;83;21004;-61
2022/01/15 09:31:18;;;;;;;33.00;21.05;;;;;;;5.51;40.29;94787.59;1745076;81;21430;-60
2022/01/15 09:33:45;;;;;;;42.03;25.20;;;;;;;5.79;40.02;94778.98;1719429;81;21647;-65
2022/01/15 09:36:12;;;;;;;37.08;25.12;;;;;;;5.97;40.34;94787.65;1729366;82;21039;-60
2022/01/15 09:38:40;;;;;;;33.63;26.10;;;;;;;5.95;39.31;94772.28;1690976;81;21024;-63
2022/01/15 09:41:11;;;;;;;14.43;11.25;;;;;;;5.89;39.01;94772.56;1718642;81;21068;-62
2022/01/15 09:43:39;;;;;;;20.37;18.17;;;;;;;5.87;38.56;94788.01;1697040;81;21451;-63
2022/01/15 09:46:08;;;;;;;15.28;13.50;;;;;;;5.95;38.03;94786.69;1708788;81;21725;-59
2022/01/15 09:48:37;;;;;;;8.50;7.08;;;;;;;6.19;38.71;94784.71;1718766;81;21225;-59
2022/01/15 09:51:05;;;;;;;14.63;10.30;;;;;;;6.44;37.58;94789.11;1714668;82;21520;-66
2022/01/15 09:53:34;;;;;;;22.17;19.82;;;;;;;6.57;38.14;94783.20;1715002;82;20965;-62
2022/01/15 09:56:06;;;;;;;11.08;8.55;;;;;;;6.87;36.78;94790.59;1685924;82;21059;-63
2022/01/15 09:58:32;;;;;;;7.53;5.55;;;;;;;7.15;36.32;94777.08;1702087;80;20962;-61
2022/01/15 10:00:59;;;;;;;6.90;5.47;;;;;;;7.16;35.69;94796.40;1706430;83;21129;-61
2022/01/15 10:03:26;;;;;;;7.92;5.92;;;;;;;6.76;36.39;94783.80;1699844;83;21064;-63
2022/01/15 10:05:53;;;;;;;7.87;6.62;;;;;;;6.45;36.88;94778.36;1676960;83;21125;-60
2022/01/15 10:08:24;;;;;;;11.83;8.55;;;;;;;6.41;36.31;94780.39;1688459;83;21096;-62
2022/01/15 10:10:52;;;;;;;8.78;5.83;;;;;;;6.46;37.02;94777.16;1699084;83;21034;-62
2022/01/15 10:13:24;;;;;;;8.20;6.28;;;;;;;6.58;36.83;94770.50;1730490;81;21771;-61
2022/01/15 10:16:04;;;;;;;8.63;6.12;;;;;;;6.55;36.81;94761.00;1712364;82;21506;-63
2022/01/15 10:18:32;;;;;;;16.02;11.03;;;;;;;6.52;37.31;94765.94;1720083;82;21760;-64
2022/01/15 10:21:25;;;;;;;9.50;7.00;;;;;;;6.60;37.55;94761.86;1719490;82;21019;-60
2022/01/15 10:23:55;;;;;;;9.58;6.53;;;;;;;6.75;36.53;94757.07;1697230;82;21046;-62
2022/01/15 10:26:27;;;;;;;10.03;6.90;;;;;;;6.81;36.39;94775.09;1665821;83;21292;-60
2022/01/15 10:29:04;;;;;;;11.60;7.30;;;;;;;6.87;36.50;94748.20;1703232;83;21020;-61
2022/01/15 10:31:35;;;;;;;7.15;5.25;;;;;;;7.00;36.56;94750.47;1701044;83;21686;-65
2022/01/15 10:34:27;;;;;;;21.05;11.63;;;;;;;7.15;35.61;94753.83;1696999;83;21724;-63
2022/01/15 10:37:12;;;;;;;17.95;11.57;;;;;;;7.23;35.89;94759.33;1681821;83;21065;-63
2022/01/15 10:39:41;;;;;;;17.25;9.35;;;;;;;7.43;34.95;94760.62;1690868;83;21171;-61
2022/01/15 10:42:15;;;;;;;28.83;15.43;;;;;;;7.58;34.75;94759.88;1699926;83;21062;-63
2022/01/15 10:44:47;;;;;;;14.65;9.03;;;;;;;7.74;34.92;94757.13;1676355;83;21114;-62
2022/01/15 10:47:16;;;;;;;23.98;16.30;;;;;;;8.10;34.08;94750.17;1695649;83;21102;-61
2022/01/15 10:49:43;;;;;;;14.78;9.58;;;;;;;8.10;34.46;94755.03;1743222;80;21597;-61
2022/01/15 10:52:17;;;;;;;40.05;36.00;;;;;;;8.02;34.33;94746.84;1753253;80;21167;-61
2022/01/15 10:55:08;;;;;;;107.10;95.47;;;;;;;7.82;34.34;94757.13;1748195;81;22251;-63
2022/01/15 10:57:56;;;;;;;20.83;18.67;;;;;;;7.80;34.80;94751.32;1712722;82;21203;-62
2022/01/15 11:00:42;;;;;;;12.60;11.50;;;;;;;7.98;34.83;94765.92;1719777;82;21024;-61
2022/01/15 11:03:17;;;;;;;7.95;5.67;;;;;;;8.21;34.47;94752.83;1718604;83;21603;-61
2022/01/15 11:05:50;;;;;;;7.45;5.05;;;;;;;8.65;34.31;94752.00;1703889;82;21124;-65
2022/01/15 11:08:38;;;;;;;10.43;4.70;;;;;;;8.83;33.36;94752.89;1721504;82;21143;-61
2022/01/15 11:11:10;;;;;;;6.30;4.03;;;;;;;8.75;33.14;94745.46;1711190;82;21051;-62
2022/01/15 11:13:46;;;;;;;5.65;4.58;;;;;;;8.75;33.24;94743.30;1709759;82;21422;-62
2022/01/15 11:16:19;;;;;;;6.10;4.40;;;;;;;8.72;32.96;94746.92;1707394;83;21578;-61
2022/01/15 11:18:54;;;;;;;5.70;4.67;;;;;;;8.62;32.86;94741.16;1706376;83;21463;-63
2022/01/15 11:21:19;;;;;;;8.20;4.37;;;;;;;8.88;31.96;94746.27;1668942;84;21739;-61
2022/01/15 11:23:47;;;;;;;7.22;4.40;;;;;;;9.13;32.37;94737.48;1656230;85;21129;-63
2022/01/15 11:26:24;;;;;;;8.60;5.05;;;;;;;9.41;32.01;94742.09;1645253;85;21074;-61
2022/01/15 11:28:53;;;;;;;7.00;4.47;;;;;;;9.64;32.45;94736.25;1664779;85;21207;-62
2022/01/15 11:31:33;;;;;;;4.70;4.00;;;;;;;9.66;31.51;94735.20;1677620;84;21807;-62
2022/01/15 11:34:02;;;;;;;6.47;4.10;;;;;;;9.37;31.66;94728.30;1667250;84;21034;-61
2022/01/15 11:36:34;;;;;;;5.47;3.77;;;;;;;9.11;32.11;94735.75;1665489;84;21155;-61
2022/01/15 11:39:11;;;;;;;6.72;4.72;;;;;;;9.35;32.12;94723.27;1700863;83;21086;-62
2022/01/15 11:41:45;;;;;;;8.40;4.75;;;;;;;9.72;31.71;94732.67;1717825;83;21073;-60
2022/01/15 11:44:35;;;;;;;9.00;4.12;;;;;;;10.11;31.39;94739.83;1705401;82;21850;-61
2022/01/15 11:47:25;;;;;;;5.70;4.53;;;;;;;10.79;30.70;94732.91;1700550;83;21399;-68
2022/01/15 11:49:53;;;;;;;10.55;7.90;;;;;;;11.70;29.87;94739.84;1700555;82;21050;-61
2022/01/15 11:52:28;;;;;;;7.53;6.40;;;;;;;11.98;28.72;94723.55;1676342;84;21538;-64
2022/01/15 11:55:05;;;;;;;7.03;5.35;;;;;;;12.07;27.60;94726.30;1709342;83;21090;-62